Time;durP1;ratioP1;P1;durP2;ratioP2;P2;SDS_P1;SDS_P2;PMS_P1;PMS_P2;Temp;Humidity;BMP_temperature;BMP_pressure;BME280_temperature;BME280_humidity;BME280_pressure;Samples;Min_cycle;Max_cycle;Signal;HPM_P1;HPM_P2
2021/05/28 00:01:52;;;;;;;8.97;3.80;;;12.00;85.50;;;;;;5073327;28;20535;-70
2021/05/28 00:04:18;;;;;;;4.30;3.90;;;12.00;85.60;;;;;;5072946;28;20943;-70
2021/05/28 00:06:44;;;;;;;6.00;4.07;;;12.00;85.60;;;;;;5076230;28;20464;-70
2021/05/28 00:09:11;;;;;;;7.63;4.93;;;12.00;85.40;;;;;;5076943;28;20476;-70
2021/05/28 00:11:38;;;;;;;7.73;4.17;;;11.90;85.20;;;;;;5077180;28;20448;-70
2021/05/28 00:14:05;;;;;;;6.47;3.93;;;11.90;85.10;;;;;;5077194;28;20452;-70
2021/05/28 00:16:32;;;;;;;6.20;4.33;;;11.80;85.20;;;;;;5076769;28;20495;-70
2021/05/28 00:18:58;;;;;;;5.53;4.47;;;11.80;85.50;;;;;;5077060;28;20523;-70
2021/05/28 00:21:24;;;;;;;6.67;4.00;;;11.80;85.80;;;;;;5076767;28;20448;-70
2021/05/28 00:23:50;;;;;;;8.23;4.30;;;11.80;85.90;;;;;;5077189;28;20452;-70
2021/05/28 00:26:17;;;;;;;4.70;4.00;;;11.80;86.00;;;;;;5076959;28;20456;-71
2021/05/28 00:28:48;;;;;;;5.40;4.07;;;11.80;85.90;;;;;;5076818;28;20455;-71
2021/05/28 00:31:16;;;;;;;5.10;4.60;;;11.70;85.80;;;;;;5076926;28;20494;-71
2021/05/28 00:33:42;;;;;;;4.57;4.17;;;11.70;85.80;;;;;;5076775;28;20441;-71
2021/05/28 00:36:09;;;;;;;6.37;4.50;;;11.70;85.70;;;;;;5076778;28;20828;-70
2021/05/28 00:38:35;;;;;;;5.00;4.40;;;11.70;85.80;;;;;;5076740;28;20448;-70
2021/05/28 00:41:02;;;;;;;5.30;4.37;;;11.70;85.90;;;;;;5076440;28;20494;-70
2021/05/28 00:43:28;;;;;;;4.20;3.80;;;11.70;86.00;;;;;;5076642;28;20812;-70
2021/05/28 00:45:55;;;;;;;7.20;5.27;;;11.70;86.00;;;;;;5076549;28;20468;-70
2021/05/28 00:48:22;;;;;;;7.10;4.83;;;11.70;86.00;;;;;;5076537;28;20441;-70
2021/05/28 00:50:49;;;;;;;5.70;4.40;;;11.70;85.90;;;;;;5076078;28;20480;-70
2021/05/28 00:53:16;;;;;;;4.67;4.20;;;11.60;85.50;;;;;;5076414;28;20451;-70
2021/05/28 00:55:42;;;;;;;4.93;4.50;;;11.60;85.40;;;;;;5076073;28;20938;-70
2021/05/28 00:58:09;;;;;;;6.40;4.47;;;11.60;85.40;;;;;;5076495;28;20467;-70
2021/05/28 01:00:35;;;;;;;5.27;4.53;;;11.50;85.50;;;;;;5076440;28;20471;-70
2021/05/28 01:03:02;;;;;;;6.20;4.50;;;11.50;85.70;;;;;;5076265;28;20498;-70
2021/05/28 01:05:31;;;;;;;6.13;4.90;;;11.50;85.90;;;;;;5076391;28;20459;-70
2021/05/28 01:07:58;;;;;;;7.43;4.17;;;11.50;86.30;;;;;;5075958;28;20926;-70
2021/05/28 01:10:24;;;;;;;6.33;4.67;;;11.50;86.70;;;;;;5076066;28;20484;-70
2021/05/28 01:12:51;;;;;;;5.60;3.97;;;11.50;87.10;;;;;;5076093;28;20451;-70
2021/05/28 01:15:18;;;;;;;6.30;5.70;;;11.60;88.60;;;;;;5075910;28;20826;-70
2021/05/28 01:17:44;;;;;;;6.23;4.77;;;11.60;88.30;;;;;;5074831;28;20472;-70
2021/05/28 01:20:11;;;;;;;13.57;5.70;;;11.60;88.70;;;;;;5075935;28;20447;-70
2021/05/28 01:22:38;;;;;;;6.20;4.97;;;11.60;89.20;;;;;;5076031;28;20453;-71
2021/05/28 01:25:06;;;;;;;10.30;6.67;;;11.60;89.50;;;;;;5075894;28;20444;-71
2021/05/28 01:27:32;;;;;;;5.60;4.93;;;11.70;89.80;;;;;;5075501;28;20982;-70
2021/05/28 01:29:59;;;;;;;6.50;5.67;;;11.60;89.80;;;;;;5075414;28;20476;-70
2021/05/28 01:32:25;;;;;;;5.67;5.17;;;11.70;89.80;;;;;;5075707;28;20532;-70
2021/05/28 01:34:51;;;;;;;6.87;5.40;;;11.70;89.50;;;;;;5075715;28;20497;-70
2021/05/28 01:37:17;;;;;;;6.10;4.87;;;11.70;89.20;;;;;;5075601;28;20480;-70
2021/05/28 01:39:46;;;;;;;6.80;5.17;;;11.60;88.70;;;;;;5075577;28;20452;-70
2021/05/28 01:42:12;;;;;;;5.30;4.87;;;11.60;88.90;;;;;;5075576;28;20449;-70
2021/05/28 01:44:39;;;;;;;5.13;4.73;;;11.60;88.70;;;;;;5076158;28;20460;-70
2021/05/28 01:47:05;;;;;;;5.57;5.03;;;11.50;88.60;;;;;;5075426;28;20465;-70
2021/05/28 01:49:31;;;;;;;5.13;4.63;;;11.50;88.70;;;;;;5075371;28;20487;-70
2021/05/28 01:51:58;;;;;;;6.57;4.87;;;11.50;88.70;;;;;;5075371;28;20429;-70
2021/05/28 01:54:24;;;;;;;5.97;4.67;;;11.50;89.30;;;;;;5075298;28;20506;-70
2021/05/28 01:56:52;;;;;;;6.70;4.77;;;11.50;88.40;;;;;;5075018;28;20476;-70
2021/05/28 01:59:24;;;;;;;5.37;4.87;;;11.40;88.00;;;;;;5075492;28;20854;-70
2021/05/28 02:01:51;;;;;;;4.50;4.10;;;11.40;87.60;;;;;;5075012;28;20541;-70
2021/05/28 02:04:17;;;;;;;7.30;4.50;;;11.40;87.20;;;;;;5075155;28;20946;-70
2021/05/28 02:06:43;;;;;;;6.60;4.73;;;11.40;86.90;;;;;;5075012;28;20472;-70
2021/05/28 02:09:10;;;;;;;5.97;4.57;;;11.30;86.50;;;;;;5074923;28;20480;-70
2021/05/28 02:11:36;;;;;;;5.50;4.57;;;11.30;86.30;;;;;;5074610;28;20827;-70
2021/05/28 02:14:04;;;;;;;6.30;4.17;;;11.20;86.00;;;;;;5074901;28;20814;-70
2021/05/28 02:16:30;;;;;;;5.80;4.50;;;11.20;85.90;;;;;;5074541;28;20472;-70
2021/05/28 02:18:57;;;;;;;5.20;4.37;;;11.20;85.50;;;;;;5075505;28;20517;-70
2021/05/28 02:21:23;;;;;;;5.90;4.63;;;11.10;85.20;;;;;;5074773;28;20449;-70
2021/05/28 02:23:50;;;;;;;5.10;4.20;;;11.10;85.20;;;;;;5074785;28;20812;-70
2021/05/28 02:26:16;;;;;;;6.77;4.73;;;11.00;85.20;;;;;;5074592;28;20465;-70
2021/05/28 02:28:42;;;;;;;4.37;3.97;;;11.00;85.10;;;;;;5074383;28;20436;-70
2021/05/28 02:31:09;;;;;;;5.27;3.97;;;11.00;85.30;;;;;;5074586;28;20484;-70
2021/05/28 02:33:36;;;;;;;7.20;4.00;;;11.00;85.40;;;;;;5074493;28;20490;-70
2021/05/28 02:36:03;;;;;;;6.17;4.50;;;10.90;85.20;;;;;;5075244;28;20500;-70
2021/05/28 02:38:30;;;;;;;4.00;3.60;;;10.90;85.00;;;;;;5074453;28;20471;-70
2021/05/28 02:40:56;;;;;;;5.30;4.37;;;10.90;84.90;;;;;;5074984;28;20432;-70
2021/05/28 02:43:22;;;;;;;6.50;4.30;;;10.90;84.70;;;;;;5074555;28;20457;-70
2021/05/28 02:45:49;;;;;;;5.03;4.53;;;10.80;84.50;;;;;;5074147;28;20460;-70
2021/05/28 02:48:16;;;;;;;5.00;4.53;;;10.80;84.60;;;;;;5075069;28;20449;-70
2021/05/28 02:50:42;;;;;;;8.67;4.67;;;10.80;84.50;;;;;;5073795;28;20486;-70
2021/05/28 02:53:10;;;;;;;5.00;4.60;;;10.80;84.30;;;;;;5074197;28;20867;-70
2021/05/28 02:55:36;;;;;;;4.93;4.30;;;10.70;84.20;;;;;;5074388;28;20476;-70
2021/05/28 02:58:03;;;;;;;5.30;4.33;;;10.70;84.20;;;;;;5074356;28;20483;-70
2021/05/28 03:00:29;;;;;;;9.03;5.17;;;10.70;84.20;;;;;;5074438;28;20495;-70
2021/05/28 03:02:55;;;;;;;6.80;4.60;;;10.60;83.90;;;;;;5074101;28;20810;-70
2021/05/28 03:05:23;;;;;;;7.27;4.87;;;10.60;83.70;;;;;;5073961;28;20448;-70
2021/05/28 03:07:49;;;;;;;6.23;5.53;;;10.60;83.80;;;;;;5074249;28;20480;-71
2021/05/28 03:10:17;;;;;;;5.90;4.87;;;10.60;83.80;;;;;;5073812;28;20488;-71
2021/05/28 03:12:44;;;;;;;5.90;4.30;;;10.50;83.70;;;;;;5074171;28;20445;-71
2021/05/28 03:15:11;;;;;;;4.00;3.63;;;10.50;83.70;;;;;;5073895;28;20451;-71
2021/05/28 03:17:41;;;;;;;4.30;2.97;;;10.50;83.70;;;;;;5073957;28;20478;-71
2021/05/28 03:20:17;;;;;;;3.83;3.53;;;10.40;83.30;;;;;;5073587;28;20965;-71
2021/05/28 03:22:45;;;;;;;3.10;2.87;;;10.30;83.10;;;;;;5074017;28;20444;-71
2021/05/28 03:25:13;;;;;;;3.10;2.90;;;10.30;83.20;;;;;;5073767;28;20444;-71
2021/05/28 03:27:40;;;;;;;2.83;2.63;;;10.20;83.10;;;;;;5073822;28;20494;-70
2021/05/28 03:30:09;;;;;;;2.90;2.70;;;10.20;83.20;;;;;;5073970;28;20480;-70
2021/05/28 03:32:36;;;;;;;3.47;3.17;;;10.20;83.30;;;;;;5073630;28;20456;-70
2021/05/28 03:35:04;;;;;;;3.10;2.80;;;10.10;83.10;;;;;;5073311;28;20448;-71
2021/05/28 03:37:31;;;;;;;3.90;3.60;;;10.10;82.80;;;;;;5073479;28;20467;-70
2021/05/28 03:39:58;;;;;;;3.43;3.23;;;10.10;82.70;;;;;;5072744;28;20464;-70
2021/05/28 03:42:24;;;;;;;3.20;2.93;;;10.10;82.80;;;;;;5073501;28;20471;-70
2021/05/28 03:44:50;;;;;;;4.43;3.30;;;10.10;82.90;;;;;;5073455;28;20451;-70
2021/05/28 03:47:18;;;;;;;4.03;3.27;;;10.10;82.90;;;;;;5073363;28;20467;-70
2021/05/28 03:49:44;;;;;;;6.10;4.70;;;10.10;82.90;;;;;;5073369;28;20552;-70
2021/05/28 03:52:11;;;;;;;7.60;4.87;;;10.10;82.80;;;;;;5073364;28;20448;-70
2021/05/28 03:54:38;;;;;;;5.30;4.80;;;10.10;82.90;;;;;;5073360;28;20456;-71
2021/05/28 03:57:06;;;;;;;4.77;4.43;;;10.00;83.00;;;;;;5073362;28;20525;-70
2021/05/28 03:59:32;;;;;;;4.83;4.43;;;10.00;83.30;;;;;;5073366;28;20441;-70
2021/05/28 04:01:58;;;;;;;8.53;4.40;;;10.00;83.50;;;;;;5073196;28;20643;-70
2021/05/28 04:04:25;;;;;;;6.00;4.33;;;10.00;83.80;;;;;;5072931;28;20443;-70
2021/05/28 04:06:51;;;;;;;4.23;3.83;;;10.00;83.80;;;;;;5073222;28;20539;-70
2021/05/28 04:09:17;;;;;;;5.53;4.03;;;10.00;83.80;;;;;;5073253;28;20433;-70
2021/05/28 04:11:44;;;;;;;5.17;4.77;;;10.00;83.70;;;;;;5073517;28;20452;-70
2021/05/28 04:14:11;;;;;;;4.67;4.37;;;10.00;83.70;;;;;;5073263;28;20447;-70
2021/05/28 04:16:37;;;;;;;4.43;4.13;;;10.00;83.80;;;;;;5072865;28;20529;-69
2021/05/28 04:19:03;;;;;;;3.00;2.80;;;10.00;83.80;;;;;;5073109;28;20447;-69
2021/05/28 04:21:30;;;;;;;4.47;3.90;;;10.00;84.00;;;;;;5073229;28;20805;-71
2021/05/28 04:23:56;;;;;;;3.40;3.10;;;10.00;84.40;;;;;;5073114;28;20448;-70
2021/05/28 04:26:22;;;;;;;5.10;3.60;;;10.00;85.40;;;;;;5073008;28;20470;-70
2021/05/28 04:28:48;;;;;;;5.23;4.40;;;10.10;86.00;;;;;;5073033;28;20444;-70
2021/05/28 04:31:15;;;;;;;4.83;4.40;;;10.10;85.80;;;;;;5072627;28;20526;-70
2021/05/28 04:33:42;;;;;;;5.83;4.27;;;10.10;85.70;;;;;;5073056;28;20480;-70
2021/05/28 04:36:08;;;;;;;6.43;4.40;;;10.10;85.60;;;;;;5073001;28;20457;-69
2021/05/28 04:38:37;;;;;;;4.47;4.10;;;10.20;85.60;;;;;;5073047;28;20471;-70
2021/05/28 04:41:04;;;;;;;5.20;4.20;;;10.10;85.30;;;;;;5072993;28;20455;-70
2021/05/28 04:43:30;;;;;;;5.17;4.60;;;10.20;85.40;;;;;;5072976;28;20444;-70
2021/05/28 04:45:56;;;;;;;6.33;4.10;;;10.20;85.50;;;;;;5072890;28;20467;-70
2021/05/28 04:48:23;;;;;;;6.90;5.83;;;10.20;85.60;;;;;;5073702;28;20466;-70
2021/05/28 04:50:49;;;;;;;9.10;6.07;;;10.20;85.70;;;;;;5072745;28;20480;-70
2021/05/28 04:53:16;;;;;;;5.50;5.00;;;10.20;86.40;;;;;;5076345;28;20496;-70
2021/05/28 04:55:43;;;;;;;6.03;5.50;;;10.20;87.00;;;;;;5076482;28;20445;-69
2021/05/28 04:58:09;;;;;;;5.53;5.10;;;10.20;87.40;;;;;;5076445;28;20452;-69
2021/05/28 05:00:36;;;;;;;6.00;5.50;;;10.20;87.80;;;;;;5076323;28;20455;-70
2021/05/28 05:03:03;;;;;;;6.17;5.60;;;10.30;88.50;;;;;;5076275;28;20452;-70
2021/05/28 05:05:31;;;;;;;6.47;5.90;;;10.30;88.90;;;;;;5076228;28;20513;-70
2021/05/28 05:07:57;;;;;;;9.20;7.63;;;10.40;89.30;;;;;;5076079;28;20543;-70
2021/05/28 05:10:23;;;;;;;6.30;5.70;;;10.40;89.40;;;;;;5076087;28;20476;-70
2021/05/28 05:12:49;;;;;;;6.60;6.00;;;10.50;89.80;;;;;;5075734;28;21019;-70
2021/05/28 05:15:15;;;;;;;7.53;6.70;;;10.50;90.00;;;;;;5075622;28;20944;-70
2021/05/28 05:17:42;;;;;;;10.37;9.37;;;10.50;90.10;;;;;;5075953;28;20472;-70
2021/05/28 05:20:09;;;;;;;8.80;7.97;;;10.60;90.30;;;;;;5075950;28;20864;-70
2021/05/28 05:22:36;;;;;;;13.90;9.20;;;10.70;90.50;;;;;;5075884;28;20445;-70
2021/05/28 05:25:03;;;;;;;9.70;8.70;;;10.70;90.70;;;;;;5075838;28;20458;-70
2021/05/28 05:27:30;;;;;;;11.60;8.50;;;10.80;90.90;;;;;;5075740;28;20474;-70
2021/05/28 05:29:56;;;;;;;11.03;9.70;;;10.90;91.10;;;;;;5075684;28;20488;-70
2021/05/28 05:32:23;;;;;;;10.73;9.07;;;11.00;91.40;;;;;;5075694;28;20452;-71
2021/05/28 05:34:49;;;;;;;13.30;9.17;;;11.00;91.50;;;;;;5075723;28;20445;-70
2021/05/28 05:37:15;;;;;;;10.77;9.67;;;11.10;91.60;;;;;;5075606;28;20461;-70
2021/05/28 05:39:42;;;;;;;10.70;9.70;;;11.20;91.70;;;;;;5075572;28;20446;-70
2021/05/28 05:42:09;;;;;;;10.77;8.40;;;11.20;91.80;;;;;;5075531;28;20455;-70
2021/05/28 05:44:35;;;;;;;8.93;8.03;;;11.30;91.90;;;;;;5075534;28;20429;-70
2021/05/28 05:47:02;;;;;;;9.57;8.50;;;11.40;91.90;;;;;;5075407;28;20502;-70
2021/05/28 05:49:28;;;;;;;11.00;9.13;;;11.40;91.90;;;;;;5075289;28;20441;-70
2021/05/28 05:51:54;;;;;;;12.43;9.37;;;11.60;91.90;;;;;;5075036;28;20954;-70
2021/05/28 05:54:20;;;;;;;15.27;9.27;;;11.70;91.90;;;;;;5075337;28;20531;-70
2021/05/28 05:56:48;;;;;;;10.87;9.27;;;11.70;91.90;;;;;;5075258;28;20469;-70
2021/05/28 05:59:14;;;;;;;14.70;12.27;;;11.90;92.00;;;;;;5074990;28;20908;-71
2021/05/28 06:01:40;;;;;;;18.60;15.90;;;12.00;92.00;;;;;;5075241;28;20444;-71
2021/05/28 06:04:06;;;;;;;23.13;18.23;;;12.20;92.20;;;;;;5074410;28;20456;-71
2021/05/28 06:06:33;;;;;;;26.43;20.70;;;12.40;92.10;;;;;;5075028;28;20522;-70
2021/05/28 06:08:59;;;;;;;32.70;23.90;;;12.50;91.90;;;;;;5075087;28;20510;-70
2021/05/28 06:11:25;;;;;;;31.40;23.60;;;12.70;91.60;;;;;;5075156;28;20519;-70
2021/05/28 06:13:52;;;;;;;23.97;20.13;;;12.90;91.40;;;;;;5074921;28;20444;-70
2021/05/28 06:16:19;;;;;;;29.13;18.63;;;13.10;91.00;;;;;;5074603;28;20488;-70
2021/05/28 06:18:45;;;;;;;20.07;16.30;;;13.20;90.60;;;;;;5074540;28;20451;-70
2021/05/28 06:21:11;;;;;;;23.70;17.10;;;13.40;90.30;;;;;;5074755;28;20441;-70
2021/05/28 06:23:37;;;;;;;25.37;18.20;;;13.50;90.00;;;;;;5074795;28;20473;-70
2021/05/28 06:26:04;;;;;;;27.00;18.10;;;13.60;89.10;;;;;;5074561;28;20464;-70
2021/05/28 06:28:30;;;;;;;26.13;18.60;;;13.70;88.90;;;;;;5074662;28;20453;-70
2021/05/28 06:30:57;;;;;;;25.70;17.57;;;13.80;88.60;;;;;;5074229;28;21025;-70
2021/05/28 06:33:23;;;;;;;29.90;20.93;;;13.90;88.40;;;;;;5074507;28;20433;-70
2021/05/28 06:35:50;;;;;;;22.40;14.90;;;14.00;87.50;;;;;;5074492;28;20456;-70
2021/05/28 06:38:16;;;;;;;31.37;22.03;;;14.10;87.20;;;;;;5074462;28;20558;-70
2021/05/28 06:40:42;;;;;;;29.90;20.87;;;14.20;86.40;;;;;;5074105;28;20444;-70
2021/05/28 06:43:09;;;;;;;28.23;19.23;;;14.30;86.00;;;;;;5074563;28;20448;-70
2021/05/28 06:45:36;;;;;;;23.77;20.57;;;14.30;85.10;;;;;;5074338;28;20429;-70
2021/05/28 06:48:04;;;;;;;27.87;19.80;;;14.40;85.00;;;;;;5074310;28;20456;-70
2021/05/28 06:50:31;;;;;;;30.83;22.03;;;14.50;85.00;;;;;;5074163;28;20479;-71
2021/05/28 06:52:58;;;;;;;28.00;18.60;;;14.70;84.30;;;;;;5073825;28;21013;-71
2021/05/28 06:55:25;;;;;;;29.03;21.90;;;14.80;83.60;;;;;;5073849;28;20516;-71
2021/05/28 06:57:51;;;;;;;28.57;22.43;;;14.90;83.00;;;;;;5074055;28;20801;-70
2021/05/28 07:00:19;;;;;;;29.00;22.07;;;15.00;82.50;;;;;;5074102;28;20425;-70
2021/05/28 07:02:45;;;;;;;33.03;25.53;;;15.00;82.10;;;;;;5074078;28;20445;-70
2021/05/28 07:05:13;;;;;;;32.37;23.10;;;15.10;81.80;;;;;;5073960;28;20424;-70
2021/05/28 07:07:40;;;;;;;33.80;23.97;;;15.10;81.10;;;;;;5073910;28;20466;-70
2021/05/28 07:10:07;;;;;;;25.63;22.13;;;15.20;81.00;;;;;;5073683;28;20469;-70
2021/05/28 07:12:34;;;;;;;28.87;24.00;;;15.20;80.50;;;;;;5073863;28;20503;-70
2021/05/28 07:15:00;;;;;;;33.20;25.80;;;15.20;80.20;;;;;;5072927;28;20543;-70
2021/05/28 07:17:26;;;;;;;33.67;25.30;;;15.20;80.30;;;;;;5073384;28;20519;-70
2021/05/28 07:19:53;;;;;;;31.07;26.43;;;15.20;80.30;;;;;;5073984;28;20452;-70
2021/05/28 07:22:20;;;;;;;29.80;25.27;;;15.10;80.10;;;;;;5073751;28;20478;-70
2021/05/28 07:24:46;;;;;;;32.90;27.20;;;15.00;80.40;;;;;;5073762;28;20478;-70
2021/05/28 07:27:12;;;;;;;33.60;25.93;;;15.00;81.00;;;;;;5073654;28;20472;-70
2021/05/28 07:29:39;;;;;;;30.10;23.10;;;14.80;81.30;;;;;;5073686;28;20453;-71
2021/05/28 07:32:05;;;;;;;31.30;25.97;;;14.80;81.30;;;;;;5073548;28;20444;-71
2021/05/28 07:34:32;;;;;;;32.80;25.70;;;14.90;82.10;;;;;;5073298;28;20441;-71
2021/05/28 07:36:58;;;;;;;29.73;25.30;;;14.90;82.10;;;;;;5073544;28;20464;-70
2021/05/28 07:39:25;;;;;;;31.60;25.60;;;15.00;81.90;;;;;;5073611;28;20434;-71
2021/05/28 07:41:51;;;;;;;28.33;23.80;;;15.20;82.20;;;;;;5073551;28;20441;-71
2021/05/28 07:44:17;;;;;;;33.83;25.10;;;15.30;81.90;;;;;;5073557;28;20452;-71
2021/05/28 07:46:44;;;;;;;26.63;23.00;;;15.40;81.30;;;;;;5073405;28;20469;-70
2021/05/28 07:49:11;;;;;;;32.63;22.77;;;15.70;80.70;;;;;;5073426;28;20532;-71
2021/05/28 07:51:38;;;;;;;32.53;24.10;;;15.90;80.10;;;;;;5073005;28;20993;-71
2021/05/28 07:54:05;;;;;;;29.00;24.83;;;16.00;79.10;;;;;;5073600;28;20456;-70
2021/05/28 07:56:32;;;;;;;28.97;21.03;;;16.20;78.00;;;;;;5073358;28;20465;-71
2021/05/28 07:58:59;;;;;;;25.73;21.70;;;16.40;77.10;;;;;;5073426;28;20472;-70
2021/05/28 08:01:25;;;;;;;33.60;26.37;;;16.70;76.00;;;;;;5073329;28;20479;-71
2021/05/28 08:03:51;;;;;;;30.57;24.87;;;16.80;75.20;;;;;;5073509;28;20429;-71
2021/05/28 08:06:18;;;;;;;30.83;25.27;;;16.90;74.70;;;;;;5072949;28;20468;-71
2021/05/28 08:08:44;;;;;;;27.70;24.70;;;17.00;73.90;;;;;;5073403;28;20448;-71
2021/05/28 08:11:10;;;;;;;30.27;24.83;;;17.10;73.30;;;;;;5073357;28;20497;-72
2021/05/28 08:13:38;;;;;;;27.67;23.27;;;17.20;72.50;;;;;;5073648;28;20899;-71
2021/05/28 08:16:04;;;;;;;34.87;28.40;;;17.30;71.80;;;;;;5072918;28;20542;-71
2021/05/28 08:18:30;;;;;;;35.50;26.17;;;17.20;70.00;;;;;;5073149;28;20460;-71
2021/05/28 08:20:57;;;;;;;35.30;29.03;;;17.10;70.80;;;;;;5073128;28;20440;-71
2021/05/28 08:23:24;;;;;;;33.50;25.47;;;17.00;71.90;;;;;;5073132;28;20428;-71
2021/05/28 08:25:50;;;;;;;31.40;23.50;;;16.80;72.30;;;;;;5073071;28;20444;-70
2021/05/28 08:28:16;;;;;;;26.87;23.07;;;16.90;73.10;;;;;;5076794;28;20929;-71
2021/05/28 08:30:44;;;;;;;34.93;25.70;;;17.20;73.20;;;;;;5076842;28;20537;-71
2021/05/28 08:33:12;;;;;;;30.17;25.13;;;17.50;72.70;;;;;;5076545;28;20934;-71
2021/05/28 08:35:38;;;;;;;34.60;25.03;;;17.90;71.60;;;;;;5076802;28;20433;-70
2021/05/28 08:38:05;;;;;;;26.60;20.33;;;18.20;69.60;;;;;;5076449;28;20429;-71
2021/05/28 08:40:32;;;;;;;26.93;20.20;;;18.30;67.30;;;;;;5076750;28;20783;-72
2021/05/28 08:43:00;;;;;;;24.70;20.00;;;18.40;66.80;;;;;;5076780;28;20428;-71
2021/05/28 08:45:27;;;;;;;26.63;21.30;;;18.70;67.30;;;;;;5076657;28;20501;-71
2021/05/28 08:47:54;;;;;;;30.77;23.17;;;18.90;66.90;;;;;;5076571;28;20461;-71
2021/05/28 08:50:25;;;;;;;28.50;21.33;;;19.20;66.00;;;;;;5076394;28;20487;-71
2021/05/28 08:52:51;;;;;;;27.97;21.30;;;19.40;63.80;;;;;;5076618;28;20453;-71
2021/05/28 08:55:18;;;;;;;28.77;21.53;;;19.60;63.80;;;;;;5076471;28;20428;-71
2021/05/28 08:57:44;;;;;;;28.67;20.20;;;19.60;63.00;;;;;;5076111;28;21001;-71
2021/05/28 09:00:11;;;;;;;25.30;19.97;;;19.60;62.00;;;;;;5075995;28;20445;-71
2021/05/28 09:02:39;;;;;;;23.73;18.03;;;19.50;62.20;;;;;;5076409;28;20440;-71
2021/05/28 09:05:12;;;;;;;19.73;16.80;;;19.60;62.80;;;;;;5076224;28;20456;-71
2021/05/28 09:07:40;;;;;;;20.47;16.73;;;19.70;61.50;;;;;;5075851;28;20978;-71
2021/05/28 09:10:30;;;;;;;22.03;16.60;;;20.00;62.10;;;;;;5075856;28;20541;-71
2021/05/28 09:13:10;;;;;;;21.50;17.50;;;20.40;61.00;;;;;;5075906;28;20912;-71
2021/05/28 09:15:37;;;;;;;21.50;17.93;;;20.70;58.80;;;;;;5075883;28;20846;-71
2021/05/28 09:18:03;;;;;;;22.63;17.60;;;20.90;59.10;;;;;;5076102;28;20432;-71
2021/05/28 09:20:31;;;;;;;19.20;16.07;;;21.00;58.00;;;;;;5075653;28;20456;-71
2021/05/28 09:23:09;;;;;;;20.17;15.67;;;21.10;58.10;;;;;;5075950;28;20535;-71
2021/05/28 09:26:02;;;;;;;23.40;15.27;;;21.30;57.80;;;;;;5075908;28;20452;-71
2021/05/28 09:28:30;;;;;;;18.97;14.10;;;21.60;58.70;;;;;;5075872;28;20429;-71
2021/05/28 09:30:59;;;;;;;14.40;12.20;;;21.90;58.00;;;;;;5075742;28;20518;-71
2021/05/28 09:33:26;;;;;;;12.10;10.10;;;22.30;56.90;;;;;;5075497;28;20798;-71
2021/05/28 09:36:05;;;;;;;12.67;9.27;;;22.60;54.80;;;;;;5076355;28;20444;-71
2021/05/28 09:38:31;;;;;;;14.53;10.27;;;22.90;53.50;;;;;;5074308;28;20922;-71
2021/05/28 09:40:58;;;;;;;9.27;7.53;;;23.10;52.40;;;;;;5075665;28;20425;-71
2021/05/28 09:43:26;;;;;;;10.23;6.83;;;23.40;51.50;;;;;;5075595;28;20448;-71
2021/05/28 09:45:52;;;;;;;9.13;7.27;;;23.70;48.80;;;;;;5076245;28;20440;-71
2021/05/28 09:48:25;;;;;;;12.50;10.80;;;23.90;47.80;;;;;;5075551;28;20812;-71
2021/05/28 09:50:54;;;;;;;19.07;12.47;;;24.20;48.90;;;;;;5075668;28;20465;-71
2021/05/28 09:53:29;;;;;;;13.00;11.30;;;24.50;49.20;;;;;;5075174;28;20433;-72
2021/05/28 09:55:56;;;;;;;14.30;10.70;;;24.80;49.00;;;;;;5074985;28;20985;-71
2021/05/28 09:58:22;;;;;;;16.40;14.20;;;25.20;48.80;;;;;;5075448;28;20958;-71
2021/05/28 10:00:49;;;;;;;14.63;12.10;;;25.40;47.10;;;;;;5075522;28;20440;-71
2021/05/28 10:03:18;;;;;;;14.10;11.63;;;25.50;46.20;;;;;;5075381;28;20452;-71
2021/05/28 10:05:47;;;;;;;13.73;11.47;;;25.80;47.40;;;;;;5075128;28;20445;-71
2021/05/28 10:08:16;;;;;;;15.30;12.20;;;26.10;46.00;;;;;;5075366;28;20574;-71
2021/05/28 10:10:45;;;;;;;12.60;11.07;;;26.60;44.80;;;;;;5074735;28;21001;-71
2021/05/28 10:13:13;;;;;;;14.80;11.63;;;26.90;44.30;;;;;;5075030;28;20440;-71
2021/05/28 10:15:41;;;;;;;12.17;10.87;;;27.10;43.80;;;;;;5074778;28;20997;-71
2021/05/28 10:18:08;;;;;;;17.07;12.23;;;27.30;43.20;;;;;;5075123;28;20455;-72
2021/05/28 10:20:36;;;;;;;16.77;13.23;;;27.60;42.70;;;;;;5075189;28;20444;-73
2021/05/28 10:23:02;;;;;;;16.83;12.83;;;27.60;40.80;;;;;;5075058;28;20482;-72
2021/05/28 10:25:29;;;;;;;20.30;16.60;;;27.30;41.20;;;;;;5074679;28;20813;-72
2021/05/28 10:27:58;;;;;;;15.80;13.70;;;27.00;41.60;;;;;;5074446;28;20472;-71
2021/05/28 10:30:26;;;;;;;18.80;13.67;;;26.60;41.40;;;;;;5075123;28;20518;-71
2021/05/28 10:33:16;;;;;;;14.63;12.00;;;26.50;41.30;;;;;;5074814;28;20934;-72
2021/05/28 10:35:45;;;;;;;13.77;11.70;;;26.50;42.40;;;;;;5074733;28;20448;-72
2021/05/28 10:38:41;;;;;;;13.83;11.80;;;26.60;42.40;;;;;;5075236;28;20455;-70
2021/05/28 10:41:37;;;;;;;16.60;13.60;;;26.80;42.90;;;;;;5074493;28;20891;-72
2021/05/28 10:44:23;;;;;;;13.00;11.70;;;27.10;42.30;;;;;;5074579;28;20432;-71
2021/05/28 10:46:54;;;;;;;13.00;11.70;;;27.50;41.70;;;;;;5074401;28;20467;-71
2021/05/28 10:49:41;;;;;;;16.23;13.13;;;28.10;40.30;;;;;;5074135;28;20444;-71
2021/05/28 10:52:09;;;;;;;17.10;12.97;;;28.90;39.80;;;;;;5074553;28;20482;-71
2021/05/28 10:54:41;;;;;;;14.50;12.27;;;29.60;38.70;;;;;;5073818;28;20491;-71
2021/05/28 10:57:43;;;;;;;15.67;14.17;;;29.90;36.10;;;;;;5074188;28;20840;-72
2021/05/28 11:00:19;;;;;;;16.52;13.65;;;30.10;35.10;;;;;;5073405;28;20434;-72
2021/05/28 11:02:53;;;;;;;14.10;11.60;;;30.20;33.10;;;;;;5074496;28;20197;-72
2021/05/28 11:05:55;;;;;;;16.97;13.80;;;30.40;34.60;;;;;;5074318;28;20461;-72
2021/05/28 11:08:44;;;;;;;14.93;10.97;;;30.60;34.50;;;;;;5073897;28;20494;-72
2021/05/28 11:11:57;;;;;;;18.33;13.90;;;30.70;34.80;;;;;;5074103;28;20598;-72
2021/05/28 11:14:24;;;;;;;15.57;12.90;;;30.70;32.90;;;;;;5074579;28;20429;-72
2021/05/28 11:17:15;;;;;;;14.13;11.20;;;30.50;32.60;;;;;;5073873;28;20480;-72
2021/05/28 11:19:47;;;;;;;20.93;13.73;;;30.60;33.80;;;;;;5074162;28;20476;-72
2021/05/28 11:22:24;;;;;;;16.67;13.70;;;30.40;33.50;;;;;;5074002;28;20903;-72
2021/05/28 11:25:00;;;;;;;16.50;13.70;;;29.70;33.50;;;;;;5073996;28;20802;-72
2021/05/28 11:27:46;;;;;;;16.90;15.10;;;29.00;35.10;;;;;;5073826;28;20478;-72
2021/05/28 11:30:26;;;;;;;16.47;13.10;;;28.20;36.00;;;;;;5073403;28;20480;-72
2021/05/28 11:32:52;;;;;;;15.90;13.17;;;27.80;37.50;;;;;;5073566;28;20428;-72
2021/05/28 11:35:20;;;;;;;17.13;13.40;;;27.80;38.90;;;;;;5073229;28;20937;-72
2021/05/28 11:37:50;;;;;;;15.73;13.97;;;27.90;38.90;;;;;;5073556;28;20471;-72
2021/05/28 11:40:19;;;;;;;16.00;12.33;;;28.50;37.70;;;;;;5073641;28;20443;-72
2021/05/28 11:42:47;;;;;;;13.40;11.70;;;29.10;36.30;;;;;;5073620;28;20448;-72
2021/05/28 11:45:14;;;;;;;15.43;10.93;;;30.00;35.90;;;;;;5073551;28;20493;-72
2021/05/28 11:47:42;;;;;;;13.90;12.47;;;31.10;34.90;;;;;;5073433;28;20525;-72
2021/05/28 11:50:12;;;;;;;13.80;11.70;;;32.30;32.50;;;;;;5074474;28;20472;-73
2021/05/28 11:52:38;;;;;;;11.37;10.27;;;33.30;29.20;;;;;;5074072;28;20477;-73
2021/05/28 11:55:08;;;;;;;12.67;11.30;;;34.30;28.40;;;;;;5073750;28;20496;-73
2021/05/28 11:57:34;;;;;;;13.73;12.30;;;35.00;26.50;;;;;;5073435;28;20470;-72
2021/05/28 12:00:04;;;;;;;17.70;12.27;;;35.50;26.30;;;;;;5073270;28;20947;-72
2021/05/28 12:02:34;;;;;;;11.63;10.43;;;36.00;26.60;;;;;;5076102;28;20512;-72
2021/05/28 12:05:02;;;;;;;11.27;10.17;;;36.40;25.80;;;;;;5077381;28;20964;-72
2021/05/28 12:07:29;;;;;;;12.13;10.50;;;36.60;25.90;;;;;;5077490;28;20476;-73
2021/05/28 12:10:04;;;;;;;15.40;10.57;;;36.90;25.10;;;;;;5077562;28;20186;-73
2021/05/28 12:12:49;;;;;;;12.20;10.90;;;36.90;24.60;;;;;;5077614;28;20259;-73
2021/05/28 12:15:16;;;;;;;13.10;11.80;;;36.90;24.00;;;;;;5077341;28;20186;-73
2021/05/28 12:17:42;;;;;;;16.00;11.70;;;36.80;24.10;;;;;;5077526;28;20244;-72
2021/05/28 12:20:23;;;;;;;14.40;11.20;;;36.50;24.90;;;;;;5077558;28;20225;-72
2021/05/28 12:23:05;;;;;;;12.90;10.17;;;36.10;25.40;;;;;;5077825;28;20265;-73
2021/05/28 12:25:33;;;;;;;13.87;10.43;;;35.90;25.70;;;;;;5077531;28;20186;-73
2021/05/28 12:28:21;;;;;;;16.37;14.67;;;36.00;25.90;;;;;;5077115;28;20236;-73
2021/05/28 12:30:50;;;;;;;17.00;15.17;;;35.80;25.40;;;;;;5077467;28;20206;-73
2021/05/28 12:33:18;;;;;;;17.40;14.67;;;35.30;25.60;;;;;;5077064;28;20921;-73
2021/05/28 12:35:52;;;;;;;15.70;13.70;;;35.20;25.90;;;;;;5077733;28;20482;-72
2021/05/28 12:38:20;;;;;;;17.33;14.50;;;35.20;25.30;;;;;;5077002;28;20450;-72
2021/05/28 12:40:49;;;;;;;15.07;13.30;;;35.20;25.50;;;;;;5077165;28;20451;-72
2021/05/28 12:43:24;;;;;;;14.47;12.47;;;34.90;25.30;;;;;;5077092;28;20448;-72